Time;durP1;ratioP1;P1;durP2;ratioP2;P2;SDS_P1;SDS_P2;PMS_P1;PMS_P2;Temp;Humidity;BMP_temperature;BMP_pressure;BME280_temperature;BME280_humidity;BME280_pressure;Samples;Min_cycle;Max_cycle;Signal;HPM_P1;HPM_P2
2023/01/06 00:01:16;;;;;;;;;29.75;26.00;;;;;7.17;71.63;101228.88;5054512;28;45327;-72
2023/01/06 00:03:42;;;;;;;;;7.75;7.50;;;;;7.10;71.98;101214.66;5052884;28;45444;-67
2023/01/06 00:06:10;;;;;;;;;19.25;17.75;;;;;7.15;71.86;101220.09;5046478;28;45958;-67
2023/01/06 00:08:36;;;;;;;;;25.25;21.75;;;;;7.00;71.84;101198.47;5047815;28;45453;-66
2023/01/06 00:11:13;;;;;;;;;29.00;23.25;;;;;7.15;72.05;101222.69;5054171;28;45449;-68
2023/01/06 00:13:39;;;;;;;;;89.00;67.25;;;;;7.17;72.50;101221.09;5047834;28;45317;-67
2023/01/06 00:16:08;;;;;;;;;62.25;48.25;;;;;7.16;72.17;101214.06;5054295;28;45482;-68
2023/01/06 00:18:34;;;;;;;;;18.75;14.50;;;;;7.13;72.51;101212.22;5048905;28;45467;-67
2023/01/06 00:21:01;;;;;;;;;11.25;11.00;;;;;7.08;72.55;101221.47;5052643;28;45317;-68
2023/01/06 00:23:27;;;;;;;;;6.75;6.25;;;;;7.07;72.52;101211.00;5053795;28;45581;-69
2023/01/06 00:25:52;;;;;;;;;12.00;10.50;;;;;7.07;72.57;101211.00;5048575;28;46081;-73
2023/01/06 00:28:18;;;;;;;;;78.50;59.00;;;;;7.08;72.42;101205.91;5041192;28;45324;-67
2023/01/06 00:30:44;;;;;;;;;55.25;46.50;;;;;7.09;72.29;101209.38;5054095;28;45434;-66
2023/01/06 00:33:09;;;;;;;;;6.75;6.75;;;;;7.09;72.54;101206.78;5049589;28;45473;-68
2023/01/06 00:35:35;;;;;;;;;55.00;42.75;;;;;7.10;72.64;101208.56;5057025;28;46154;-67
2023/01/06 00:38:00;;;;;;;;;63.50;50.00;;;;;7.10;72.98;101212.06;5048477;28;45426;-74
2023/01/06 00:40:26;;;;;;;;;25.50;22.25;;;;;7.10;72.59;101218.94;5049209;28;45426;-68
2023/01/06 00:42:51;;;;;;;;;8.25;8.00;;;;;7.09;72.32;101209.38;5045952;28;45526;-67
2023/01/06 00:45:17;;;;;;;;;2.75;2.50;;;;;7.09;72.17;101218.06;5052869;28;46112;-66
2023/01/06 00:47:42;;;;;;;;;3.75;3.25;;;;;7.00;72.48;101203.66;5047980;28;45423;-70
2023/01/06 00:50:08;;;;;;;;;3.00;3.00;;;;;6.93;72.59;101208.53;5050238;28;45526;-67
2023/01/06 00:52:34;;;;;;;;;3.00;2.00;;;;;6.90;73.32;101207.47;5050662;28;45586;-66
2023/01/06 00:54:59;;;;;;;;;3.25;2.50;;;;;6.99;72.74;101215.78;5047664;28;45930;-67
2023/01/06 00:57:25;;;;;;;;;16.25;14.00;;;;;6.99;72.34;101215.78;5056501;28;45509;-67
2023/01/06 00:59:50;;;;;;;;;44.50;36.00;;;;;6.99;72.13;101215.78;5039833;28;45383;-67
2023/01/06 01:02:16;;;;;;;;;22.00;17.50;;;;;6.99;72.21;101214.88;5045973;28;45484;-67
2023/01/06 01:04:42;;;;;;;;;4.00;3.75;;;;;6.97;71.99;101213.09;5047245;28;45363;-66
2023/01/06 01:07:07;;;;;;;;;53.25;42.00;;;;;6.96;72.48;101211.31;5045277;28;46368;-74
2023/01/06 01:09:33;;;;;;;;;34.75;30.00;;;;;6.95;73.24;101211.22;5046823;28;45542;-67
2023/01/06 01:12:11;;;;;;;;;2.50;2.50;;;;;6.88;72.88;101212.56;5054029;28;45551;-67
2023/01/06 01:14:53;;;;;;;;;2.00;1.75;;;;;6.86;72.82;101203.78;5052731;28;45634;-74
2023/01/06 01:17:23;;;;;;;;;1.75;1.00;;;;;6.83;73.48;101202.75;5047925;28;45407;-67
2023/01/06 01:19:53;;;;;;;;;1.00;1.00;;;;;6.60;73.42;101165.13;5052625;28;45513;-68
2023/01/06 01:22:19;;;;;;;;;2.50;2.00;;;;;6.77;73.39;101199.00;5056654;28;45478;-66
2023/01/06 01:24:44;;;;;;;;;35.75;33.00;;;;;6.76;73.52;101197.22;5052548;28;45729;-66
2023/01/06 01:27:10;;;;;;;;;30.50;27.75;;;;;6.77;73.76;101198.09;5056338;28;45343;-75
2023/01/06 01:29:36;;;;;;;;;21.75;21.75;;;;;6.75;73.32;101195.41;5046777;28;45592;-71
2023/01/06 01:32:01;;;;;;;;;12.25;12.25;;;;;6.76;73.23;101201.50;5050490;28;45574;-67
2023/01/06 01:34:27;;;;;;;;;12.75;9.50;;;;;6.75;73.55;101195.41;5049692;28;45451;-69
2023/01/06 01:36:53;;;;;;;;;9.00;9.00;;;;;6.59;73.53;101169.41;5051309;28;45399;-66
2023/01/06 01:39:21;;;;;;;;;6.00;5.75;;;;;6.73;73.22;101201.34;5046469;28;45356;-67
2023/01/06 01:41:48;;;;;;;;;3.00;3.00;;;;;6.49;73.73;101162.81;5048804;28;45383;-66
2023/01/06 01:44:53;;;;;;;;;3.50;3.50;;;;;6.67;73.52;101211.38;5056413;28;45675;-74
2023/01/06 01:47:36;;;;;;;;;6.00;5.50;;;;;6.66;73.59;101217.38;5043106;28;45614;-67
2023/01/06 01:50:08;;;;;;;;;8.00;5.00;;;;;6.65;73.37;101216.50;5056008;28;45553;-68
2023/01/06 01:52:34;;;;;;;;;2.75;2.75;;;;;6.64;73.74;101219.00;5047817;28;45402;-70
2023/01/06 01:55:01;;;;;;;;;6.75;5.00;;;;;6.38;74.00;101185.53;5050861;28;45499;-69
2023/01/06 01:57:35;;;;;;;;;6.00;6.00;;;;;6.60;73.64;101214.44;5053189;28;45427;-68
2023/01/06 02:00:05;;;;;;;;;3.00;3.00;;;;;6.44;73.61;101197.97;5047136;28;45258;-70
2023/01/06 02:02:31;;;;;;;;;8.00;7.25;;;;;6.58;74.09;101222.13;5050990;28;45507;-69
2023/01/06 02:04:59;;;;;;;;;9.50;8.00;;;;;6.57;73.84;101215.16;5051036;28;46200;-67
2023/01/06 02:07:26;;;;;;;;;7.50;7.00;;;;;6.57;74.02;101208.25;5048022;28;45325;-67
2023/01/06 02:10:14;;;;;;;;;7.00;7.00;;;;;6.55;73.93;101217.66;5054934;28;45225;-74
2023/01/06 02:12:41;;;;;;;;;4.25;4.25;;;;;6.55;73.34;101211.59;5052771;28;45468;-73
2023/01/06 02:15:15;;;;;;;;;4.50;4.50;;;;;6.41;73.48;101187.44;5046356;28;45335;-67
2023/01/06 02:17:47;;;;;;;;;10.75;9.25;;;;;6.51;72.93;101210.50;5051384;28;45747;-71
2023/01/06 02:20:37;;;;;;;;;17.25;16.50;;;;;6.50;73.23;101207.81;5050397;28;45415;-67
2023/01/06 02:23:21;;;;;;;;;37.50;33.75;;;;;6.49;73.49;101203.47;5054798;28;45532;-68
2023/01/06 02:26:08;;;;;;;;;10.75;8.00;;;;;6.47;73.44;101205.06;5047908;28;45719;-68
2023/01/06 02:29:11;;;;;;;;;5.00;5.00;;;;;6.47;73.79;101203.38;5051397;28;45534;-66
2023/01/06 02:31:55;;;;;;;;;5.50;3.50;;;;;6.45;73.55;101202.38;5054635;28;45573;-71
2023/01/06 02:34:32;;;;;;;;;7.75;6.00;;;;;6.43;74.04;101191.03;5054903;28;45533;-67
2023/01/06 02:37:09;;;;;;;;;7.00;6.00;;;;;6.42;74.20;101202.19;5050996;28;46243;-69
2023/01/06 02:39:54;;;;;;;;;6.00;5.50;;;;;6.42;73.97;101203.91;5056300;28;46188;-66
2023/01/06 02:42:26;;;;;;;;;5.00;3.00;;;;;6.40;73.69;101201.22;5055085;28;45559;-69
2023/01/06 02:45:54;;;;;;;;;3.50;3.50;;;;;6.38;73.87;101208.00;5053881;28;45467;-66
2023/01/06 02:48:34;;;;;;;;;10.25;10.25;;;;;6.36;73.70;101204.44;4996901;28;45551;-66
2023/01/06 02:51:22;;;;;;;;;10.00;8.00;;;;;6.35;73.95;101210.47;4996609;28;45584;-67
2023/01/06 02:53:59;;;;;;;;;5.00;5.00;;;;;6.33;74.14;101204.28;5048154;28;45892;-68
2023/01/06 02:56:30;;;;;;;;;3.00;3.00;;;;;6.31;74.00;101208.50;5058863;28;45439;-68
2023/01/06 02:59:09;;;;;;;;;19.50;16.75;;;;;6.04;73.46;101163.69;5048386;28;46128;-68
2023/01/06 03:01:42;;;;;;;;;5.25;5.25;;;;;6.29;73.15;101210.09;5058554;28;45448;-67
2023/01/06 03:04:13;;;;;;;;;7.50;6.50;;;;;6.28;73.69;101206.59;5059379;28;45411;-67
2023/01/06 03:06:44;;;;;;;;;23.00;21.00;;;;;6.27;73.89;101201.34;5059688;28;45213;-73
2023/01/06 03:09:14;;;;;;;;;26.75;24.25;;;;;6.26;74.34;101195.22;5059032;28;46035;-67
2023/01/06 03:11:44;;;;;;;;;8.50;7.00;;;;;6.25;74.68;101200.34;5059714;28;45433;-75
2023/01/06 03:14:22;;;;;;;;;8.50;8.00;;;;;6.24;75.21;101203.75;5059388;28;45186;-68
2023/01/06 03:16:48;;;;;;;;;3.00;3.00;;;;;6.23;74.90;101201.94;5058627;28;45415;-67
2023/01/06 03:19:14;;;;;;;;;2.75;2.50;;;;;6.23;74.78;101201.94;5059010;28;46179;-67
2023/01/06 03:21:43;;;;;;;;;3.00;3.00;;;;;6.05;75.73;101163.78;5059579;28;45410;-69
2023/01/06 03:24:09;;;;;;;;;5.00;5.00;;;;;6.21;75.49;101196.69;5059118;28;46021;-67
2023/01/06 03:26:37;;;;;;;;;4.00;4.00;;;;;6.21;75.36;101194.09;5059423;28;45476;-67
2023/01/06 03:29:07;;;;;;;;;2.50;2.25;;;;;6.06;74.83;101167.25;5059222;28;45345;-68
2023/01/06 03:31:36;;;;;;;;;2.00;1.75;;;;;6.20;74.78;101183.63;5059273;28;45442;-69
2023/01/06 03:34:20;;;;;;;;;6.00;6.00;;;;;6.20;75.13;101186.22;5048111;28;45535;-68
2023/01/06 03:36:51;;;;;;;;;5.25;5.25;;;;;6.18;75.23;101180.94;5039468;28;45387;-67
2023/01/06 03:39:38;;;;;;;;;2.75;2.25;;;;;6.16;75.20;101191.19;5038717;28;45399;-67
2023/01/06 03:45:13;;;;;;;;;10.00;9.50;;;;;6.04;75.09;101169.75;5059503;28;45465;-71
2023/01/06 03:48:15;;;;;;;;;27.50;25.00;;;;;6.11;75.58;101191.78;5058879;28;45290;-69
2023/01/06 03:51:18;;;;;;;;;10.75;10.75;;;;;6.11;75.25;101187.47;4986906;28;45535;-67
2023/01/06 03:54:25;;;;;;;;;6.50;5.00;;;;;6.07;75.65;101182.91;5056375;28;45307;-67
2023/01/06 03:57:02;;;;;;;;;10.00;10.00;;;;;6.10;74.81;101188.25;5057653;28;45434;-67
2023/01/06 03:59:30;;;;;;;;;16.00;14.25;;;;;6.09;74.80;101189.09;5069832;28;45492;-70
2023/01/06 04:01:56;;;;;;;;;9.75;9.25;;;;;6.10;74.89;101185.66;5079337;28;45557;-67
2023/01/06 04:04:22;;;;;;;;;4.50;2.00;;;;;6.09;74.37;101189.09;5067853;28;45327;-69
2023/01/06 04:06:47;;;;;;;;;2.25;2.00;;;;;6.05;74.13;101187.13;5059085;28;45256;-77
2023/01/06 04:09:13;;;;;;;;;9.50;8.75;;;;;6.06;74.00;101188.00;5059267;28;45376;-69
2023/01/06 04:14:22;;;;;;;;;0.25;0.25;;;;;6.05;74.97;101189.72;5039300;28;45548;-69
2023/01/06 04:16:48;;;;;;;;;11.25;10.00;;;;;6.06;75.18;101185.41;5038665;28;45908;-68
2023/01/06 04:19:13;;;;;;;;;10.00;8.00;;;;;6.07;75.24;101179.41;5040504;28;45259;-68
2023/01/06 04:21:39;;;;;;;;;14.50;11.50;;;;;5.94;75.68;101160.50;5058740;28;46219;-68
2023/01/06 04:24:05;;;;;;;;;6.25;5.75;;;;;6.06;75.44;101183.69;5059068;28;45336;-67
2023/01/06 04:26:32;;;;;;;;;36.25;30.00;;;;;6.06;75.59;101182.81;5058468;28;45339;-67
2023/01/06 04:28:58;;;;;;;;;14.75;12.25;;;;;6.06;75.74;101183.69;5058212;28;45627;-67
2023/01/06 04:31:24;;;;;;;;;3.50;2.50;;;;;6.05;75.90;101181.94;5058538;28;46272;-68
2023/01/06 04:33:50;;;;;;;;;6.00;5.00;;;;;6.04;75.24;101180.13;5040438;28;45353;-67
2023/01/06 04:36:15;;;;;;;;;5.50;5.00;;;;;6.04;75.89;101176.66;5057209;28;45444;-73
2023/01/06 04:38:41;;;;;;;;;5.75;5.00;;;;;6.03;75.74;101186.13;5058894;28;45348;-67
2023/01/06 04:41:06;;;;;;;;;5.25;5.25;;;;;5.76;75.35;101149.94;5057866;28;46146;-67
2023/01/06 04:43:32;;;;;;;;;2.00;2.00;;;;;6.00;75.72;101185.94;5044036;28;45533;-68
2023/01/06 04:45:58;;;;;;;;;2.50;2.50;;;;;5.97;76.06;101183.19;5038614;28;45478;-70
2023/01/06 04:48:24;;;;;;;;;1.00;1.00;;;;;5.95;76.03;101177.91;5039011;28;45457;-67
2023/01/06 04:50:58;;;;;;;;;2.00;2.00;;;;;5.95;75.61;101179.59;5037481;28;45478;-70
2023/01/06 04:53:23;;;;;;;;;2.50;2.00;;;;;5.92;75.45;101188.03;5037928;28;45509;-67
2023/01/06 04:55:49;;;;;;;;;2.75;2.00;;;;;5.90;75.38;101179.28;5037990;28;45598;-67
2023/01/06 04:58:14;;;;;;;;;12.50;11.75;;;;;5.86;76.19;101181.63;5038405;28;45628;-70
2023/01/06 05:00:40;;;;;;;;;1.25;1.00;;;;;5.82;75.79;101188.31;5057759;28;45986;-76
2023/01/06 05:03:05;;;;;;;;;1.75;1.00;;;;;5.82;76.49;101182.25;5058069;28;45403;-70
2023/01/06 05:05:31;;;;;;;;;5.25;5.00;;;;;5.81;76.52;101180.44;5058223;28;45223;-67
2023/01/06 05:07:56;;;;;;;;;11.00;10.75;;;;;5.80;75.95;101173.47;5058027;28;45391;-67
2023/01/06 05:10:22;;;;;;;;;6.25;6.25;;;;;5.80;76.17;101189.03;5057921;28;46012;-67
2023/01/06 05:12:47;;;;;;;;;3.00;3.00;;;;;5.80;76.07;101186.44;5057526;28;45426;-67
2023/01/06 05:15:13;;;;;;;;;13.25;10.00;;;;;5.76;76.13;101181.06;5057572;28;45314;-68
2023/01/06 05:17:38;;;;;;;;;14.00;14.00;;;;;5.68;75.10;101173.63;5058709;28;45622;-77
2023/01/06 05:20:05;;;;;;;;;123.25;107.50;;;;;5.72;75.54;101173.91;5060244;28;45493;-66
2023/01/06 05:22:30;;;;;;;;;11.00;10.00;;;;;5.69;76.19;101176.31;5057128;28;45497;-66
2023/01/06 05:24:56;;;;;;;;;49.75;43.00;;;;;5.68;76.06;101178.81;5057179;28;45717;-70
2023/01/06 05:27:21;;;;;;;;;23.25;21.50;;;;;5.62;75.47;101176.75;5056807;28;45769;-66
2023/01/06 05:29:47;;;;;;;;;19.00;18.00;;;;;5.64;76.32;101176.84;5055900;28;45798;-71
2023/01/06 05:32:12;;;;;;;;;22.50;18.50;;;;;5.63;75.90;101185.41;5056056;28;45447;-67
2023/01/06 05:34:38;;;;;;;;;15.75;13.75;;;;;5.50;76.02;101174.31;5056543;28;45458;-67
2023/01/06 05:37:03;;;;;;;;;10.25;9.50;;;;;5.61;75.98;101193.13;5055721;28;45517;-70
2023/01/06 05:39:29;;;;;;;;;18.75;15.75;;;;;5.47;75.76;101176.75;5056976;28;46173;-67
2023/01/06 05:41:54;;;;;;;;;127.00;116.75;;;;;5.57;75.61;101186.84;5055561;28;45542;-68
2023/01/06 05:44:20;;;;;;;;;87.00;70.00;;;;;5.39;76.82;101162.41;5056450;28;45561;-65
2023/01/06 05:46:46;;;;;;;;;57.50;47.50;;;;;5.57;76.91;101189.44;5055938;28;45412;-67
2023/01/06 05:49:11;;;;;;;;;33.00;28.75;;;;;5.57;76.41;101196.31;5056639;28;46024;-72
2023/01/06 05:51:37;;;;;;;;;16.00;16.00;;;;;5.53;77.16;101199.50;5056001;28;45651;-68
2023/01/06 05:54:06;;;;;;;;;14.00;12.75;;;;;5.51;76.39;101195.94;5055707;28;45382;-66
2023/01/06 05:56:32;;;;;;;;;18.00;15.00;;;;;5.46;75.98;101187.88;5057071;28;45473;-66
2023/01/06 05:58:58;;;;;;;;;5.25;4.00;;;;;5.50;76.73;101201.94;5056598;28;45852;-68
2023/01/06 06:01:26;;;;;;;;;9.25;6.75;;;;;5.37;76.11;101179.53;5055152;28;45416;-64
2023/01/06 06:03:52;;;;;;;;;7.00;6.50;;;;;5.50;76.16;101213.19;5055256;28;45539;-67
2023/01/06 06:06:20;;;;;;;;;7.75;7.75;;;;;5.50;76.74;101201.94;5055406;28;45478;-71
2023/01/06 06:08:45;;;;;;;;;3.50;3.50;;;;;5.49;77.42;101201.06;5053030;28;46145;-67
2023/01/06 06:11:14;;;;;;;;;8.25;5.50;;;;;5.50;77.32;101204.53;5055295;28;45616;-68
2023/01/06 06:13:45;;;;;;;;;9.25;7.00;;;;;5.51;77.66;101207.22;5056277;28;45427;-66
2023/01/06 06:16:13;;;;;;;;;5.75;4.50;;;;;5.53;78.16;101215.06;5053890;28;45512;-67
2023/01/06 06:18:43;;;;;;;;;5.50;4.00;;;;;5.53;77.85;101208.22;5055564;28;46207;-67
2023/01/06 06:21:11;;;;;;;;;17.00;14.75;;;;;5.51;77.34;101216.66;5053615;28;45531;-67
2023/01/06 06:23:36;;;;;;;;;5.00;5.00;;;;;5.44;78.77;101207.63;5055629;28;45475;-73
2023/01/06 06:26:02;;;;;;;;;3.00;2.75;;;;;5.45;77.60;101212.03;5055942;28;45469;-69
2023/01/06 06:28:31;;;;;;;;;1.00;1.00;;;;;5.49;78.10;101211.41;5055842;28;45526;-67
2023/01/06 06:31:12;;;;;;;;;4.00;3.00;;;;;5.50;78.87;101202.81;5053868;28;45485;-66
2023/01/06 06:33:38;;;;;;;;;14.25;11.50;;;;;5.50;78.02;101210.59;5054340;28;45502;-72
2023/01/06 06:36:06;;;;;;;;;14.25;10.25;;;;;5.50;77.54;101214.91;5054999;28;45574;-66
2023/01/06 06:38:31;;;;;;;;;15.75;14.75;;;;;5.45;77.82;101206.84;5054090;28;46604;-67
2023/01/06 06:40:57;;;;;;;;;52.75;40.50;;;;;5.48;77.73;101212.19;5052876;28;45499;-68
2023/01/06 06:43:23;;;;;;;;;42.50;31.50;;;;;5.47;77.55;101212.09;5054630;28;45456;-67
2023/01/06 06:45:48;;;;;;;;;45.00;40.00;;;;;5.48;77.92;101213.91;5054461;28;45498;-69
2023/01/06 06:48:15;;;;;;;;;18.50;15.75;;;;;5.48;77.66;101212.19;5053916;28;46366;-68
2023/01/06 06:50:40;;;;;;;;;53.00;42.25;;;;;5.47;77.90;101199.16;5053990;28;45501;-67
2023/01/06 06:53:06;;;;;;;;;47.75;41.25;;;;;5.48;77.66;101206.13;5051519;28;45791;-69
2023/01/06 06:55:32;;;;;;;;;56.25;47.00;;;;;5.49;77.90;101205.31;5054741;28;45382;-68
2023/01/06 06:57:58;;;;;;;;;47.00;40.25;;;;;5.45;77.55;101195.56;5054295;28;46578;-67
2023/01/06 07:00:24;;;;;;;;;36.25;33.00;;;;;5.45;76.87;101192.97;5054176;28;45415;-73
2023/01/06 07:02:50;;;;;;;;;28.50;26.50;;;;;5.48;76.58;101207.03;5054540;28;45489;-66
2023/01/06 07:05:17;;;;;;;;;24.25;24.00;;;;;5.47;76.77;101212.09;5054844;28;45642;-67
2023/01/06 07:07:43;;;;;;;;;37.25;33.25;;;;;5.17;77.11;101167.97;5054409;28;46042;-68
2023/01/06 07:10:14;;;;;;;;;39.75;37.00;;;;;5.15;77.32;101174.75;5054622;28;45485;-67
2023/01/06 07:12:40;;;;;;;;;39.00;34.25;;;;;5.43;77.49;101223.09;5053820;28;45684;-67
2023/01/06 07:15:06;;;;;;;;;36.50;36.00;;;;;5.41;77.59;101220.38;5052540;28;45490;-73
2023/01/06 07:17:31;;;;;;;;;70.00;54.75;;;;;5.42;77.81;101224.78;5058028;28;46111;-66
2023/01/06 07:19:57;;;;;;;;;28.75;27.75;;;;;5.23;77.61;101193.34;5057821;28;45308;-72
2023/01/06 07:22:22;;;;;;;;;27.50;24.00;;;;;5.41;77.49;101222.09;5057173;28;45476;-68
2023/01/06 07:24:48;;;;;;;;;58.25;47.50;;;;;5.41;77.38;101225.56;5057777;28;45478;-70
2023/01/06 07:27:14;;;;;;;;;32.75;29.50;;;;;5.38;77.67;101233.16;5047459;28;46092;-69
2023/01/06 07:29:39;;;;;;;;;23.50;20.25;;;;;5.44;77.31;101232.66;5052962;28;45351;-67
2023/01/06 07:32:04;;;;;;;;;15.75;13.50;;;;;5.43;77.12;101238.63;5057904;28;45438;-66
2023/01/06 07:34:30;;;;;;;;;18.25;16.25;;;;;5.40;76.92;101238.47;5058643;28;45442;-67
2023/01/06 07:36:56;;;;;;;;;32.50;27.75;;;;;5.37;77.10;101236.53;5058992;28;46137;-66
2023/01/06 07:39:22;;;;;;;;;32.75;29.00;;;;;5.32;76.55;101244.03;5058220;28;45676;-67
2023/01/06 07:41:47;;;;;;;;;63.75;50.25;;;;;5.31;77.14;101244.88;5058373;28;45797;-69
2023/01/06 07:44:13;;;;;;;;;57.00;46.75;;;;;5.33;77.54;101237.16;5058985;28;45561;-74
2023/01/06 07:46:38;;;;;;;;;69.50;54.25;;;;;5.34;77.42;101239.84;5058755;28;45792;-71
2023/01/06 07:49:04;;;;;;;;;54.75;44.75;;;;;5.36;77.42;101245.13;5057882;28;45668;-73
2023/01/06 07:51:29;;;;;;;;;39.00;37.00;;;;;5.40;77.68;101243.63;5057858;28;45492;-66
2023/01/06 07:53:55;;;;;;;;;32.00;28.25;;;;;5.44;77.00;101243.03;5057715;28;45508;-69
2023/01/06 07:56:20;;;;;;;;;10.75;10.00;;;;;5.48;77.66;101242.41;5057701;28;46032;-66
2023/01/06 07:58:46;;;;;;;;;24.25;20.25;;;;;5.55;77.82;101239.38;5056274;28;45507;-67
2023/01/06 08:01:12;;;;;;;;;20.25;18.75;;;;;5.58;77.92;101242.16;5057967;28;45339;-68
2023/01/06 08:03:38;;;;;;;;;21.00;20.75;;;;;5.61;77.96;101241.44;5057521;28;45443;-67
2023/01/06 08:06:10;;;;;;;;;20.50;18.75;;;;;5.65;77.97;101246.94;5058218;28;46074;-67
2023/01/06 08:08:40;;;;;;;;;18.75;17.75;;;;;5.68;77.51;101247.09;5054272;28;45541;-66
2023/01/06 08:11:09;;;;;;;;;25.75;21.75;;;;;5.51;77.02;101206.31;5057459;28;45486;-67
2023/01/06 08:13:35;;;;;;;;;29.25;27.00;;;;;5.72;77.09;101238.72;5057847;28;45454;-69
2023/01/06 08:16:05;;;;;;;;;28.50;24.75;;;;;5.42;77.14;101185.03;5058329;28;46052;-66
2023/01/06 08:18:31;;;;;;;;;36.75;35.00;;;;;5.75;76.65;101244.09;5057180;28;45640;-66
2023/01/06 08:21:01;;;;;;;;;38.00;35.75;;;;;5.80;76.88;101246.06;5057183;28;45482;-67
2023/01/06 08:23:28;;;;;;;;;40.00;36.25;;;;;5.83;76.74;101241.06;5057404;28;45446;-67
2023/01/06 08:26:01;;;;;;;;;31.75;29.25;;;;;5.85;76.34;101242.03;5057693;28;46107;-69
2023/01/06 08:28:26;;;;;;;;;33.00;30.00;;;;;5.89;76.34;101244.00;5056582;28;45911;-67
2023/01/06 08:30:52;;;;;;;;;28.25;26.50;;;;;5.96;76.29;101247.09;5057364;28;45419;-67
2023/01/06 08:33:18;;;;;;;;;42.25;38.00;;;;;6.03;76.10;101250.97;5056232;28;45855;-66
2023/01/06 08:35:46;;;;;;;;;37.50;29.25;;;;;5.94;76.38;101216.66;5055495;28;45600;-70
2023/01/06 08:38:12;;;;;;;;;72.50;54.75;;;;;6.16;75.74;101243.09;5057801;28;45309;-72
2023/01/06 08:40:37;;;;;;;;;74.00;58.75;;;;;6.23;75.84;101246.03;5057583;28;45300;-70
2023/01/06 08:43:03;;;;;;;;;64.25;50.25;;;;;6.29;75.78;101239.53;5058176;28;45501;-78
2023/01/06 08:45:28;;;;;;;;;69.50;53.50;;;;;6.15;76.01;101205.00;5056679;28;45561;-73
2023/01/06 08:47:54;;;;;;;;;99.00;82.33;;;;;6.45;75.81;101245.63;5056761;28;45297;-73
2023/01/06 08:50:19;;;;;;;;;120.33;100.00;;;;;6.51;75.25;101248.56;5055452;28;45331;-67
2023/01/06 08:52:45;;;;;;;;;82.75;62.75;;;;;6.58;75.79;101253.28;5055632;28;45478;-66
2023/01/06 08:55:10;;;;;;;;;60.75;48.50;;;;;6.64;75.46;101258.81;5056840;28;45660;-68
2023/01/06 08:57:36;;;;;;;;;32.00;27.50;;;;;6.72;75.69;101264.47;5057195;28;45442;-65
2023/01/06 09:00:04;;;;;;;;;18.25;17.75;;;;;6.81;75.78;101264.09;5056228;28;45577;-74
2023/01/06 09:02:30;;;;;;;;;17.75;17.00;;;;;6.89;75.37;101271.50;5057309;28;45322;-69
2023/01/06 09:04:56;;;;;;;;;35.00;31.50;;;;;6.88;75.71;101243.72;5053998;28;46103;-68
2023/01/06 09:07:21;;;;;;;;;31.00;24.50;;;;;6.82;75.14;101222.63;5056900;28;45965;-76
2023/01/06 09:09:47;;;;;;;;;13.00;11.75;;;;;7.16;75.39;101266.97;5053240;28;45366;-74
2023/01/06 09:12:13;;;;;;;;;6.25;6.25;;;;;7.25;75.00;101266.56;5057147;28;45415;-74
2023/01/06 09:14:38;;;;;;;;;13.00;12.00;;;;;7.34;75.08;101256.69;5055498;28;45363;-68
2023/01/06 09:17:04;;;;;;;;;7.75;6.75;;;;;7.43;75.11;101261.47;5055833;28;45553;-67
2023/01/06 09:19:29;;;;;;;;;0.00;0.00;;;;;7.54;75.06;101267.25;5056473;28;46116;-70
2023/01/06 09:21:55;;;;;;;;;14.75;12.75;;;;;7.65;74.93;101260.03;5057291;28;45477;-70
2023/01/06 09:24:20;;;;;;;;;12.50;12.00;;;;;7.74;75.26;101251.00;5056675;28;45982;-74
2023/01/06 09:26:46;;;;;;;;;12.50;11.50;;;;;7.83;74.53;101252.31;5055585;28;45427;-67
2023/01/06 09:29:11;;;;;;;;;13.50;12.00;;;;;7.96;74.85;101245.22;5056361;28;45226;-67
2023/01/06 09:31:37;;;;;;;;;3.25;3.00;;;;;8.78;73.74;101241.50;5055233;28;45466;-71
2023/01/06 09:34:03;;;;;;;;;8.75;7.75;;;;;9.76;71.00;101212.09;5052307;28;45497;-76
2023/01/06 09:36:28;;;;;;;;;18.25;15.50;;;;;10.93;68.73;101234.41;5055245;28;45405;-70
2023/01/06 09:38:54;;;;;;;;;6.75;6.50;;;;;11.65;67.04;101239.75;5054914;28;45368;-75
2023/01/06 09:41:46;;;;;;;;;8.50;6.00;;;;;11.90;64.68;101224.97;5056123;28;45608;-74
2023/01/06 09:44:24;;;;;;;;;5.50;5.00;;;;;12.39;62.73;101225.75;5056442;28;45319;-72
2023/01/06 09:46:51;;;;;;;;;15.75;13.25;;;;;12.70;59.34;101222.41;5055430;28;45494;-71
2023/01/06 09:49:43;;;;;;;;;10.25;8.00;;;;;12.97;59.84;101226.75;5055830;28;45451;-74
2023/01/06 09:52:21;;;;;;;;;5.00;4.33;;;;;13.06;59.91;101191.19;5047766;28;45463;-71
2023/01/06 09:55:03;;;;;;;;;3.67;3.67;;;;;13.09;57.20;101182.50;5055188;28;46228;-76
2023/01/06 09:57:47;;;;;;;;;7.00;7.00;;;;;13.52;58.71;101224.06;5055242;28;45777;-69
2023/01/06 10:00:36;;;;;;;;;3.00;3.00;;;;;13.97;58.22;101227.94;5055039;28;45359;-70
2023/01/06 10:03:03;;;;;;;;;4.00;4.00;;;;;14.26;57.60;101202.41;5054805;28;45579;-76
2023/01/06 10:05:45;;;;;;;;;4.00;3.00;;;;;14.67;55.64;101223.63;5055936;28;45474;-70
2023/01/06 10:08:48;;;;;;;;;6.00;5.00;;;;;14.72;54.52;101231.59;5056751;28;45262;-68
2023/01/06 10:11:45;;;;;;;;;3.00;3.00;;;;;14.55;55.79;101196.13;5055209;28;45375;-73
2023/01/06 10:14:44;;;;;;;;;10.33;9.00;;;;;14.77;54.90;101240.50;5056927;28;45462;-77
2023/01/06 10:17:44;;;;;;;;;8.00;7.67;;;;;14.89;55.31;101240.78;5055737;28;45419;-72
2023/01/06 10:20:25;;;;;;;;;2.33;2.33;;;;;14.99;53.78;101241.03;5056066;28;45517;-68
2023/01/06 10:23:17;;;;;;;;;3.33;3.00;;;;;15.15;55.34;101234.38;5036658;28;45469;-77
2023/01/06 10:26:12;;;;;;;;;4.00;3.33;;;;;15.13;53.06;101229.06;5023972;28;45996;-77
2023/01/06 10:28:42;;;;;;;;;4.33;4.33;;;;;15.15;53.23;101229.97;5028963;28;45533;-74
2023/01/06 10:31:15;;;;;;;;;5.00;5.00;;;;;15.19;53.97;101223.94;5056016;28;45678;-76
2023/01/06 10:33:49;;;;;;;;;11.00;11.00;;;;;15.31;53.84;101221.56;5049476;28;45356;-74
2023/01/06 10:36:18;;;;;;;;;10.00;9.67;;;;;15.32;53.85;101220.72;5039317;28;45526;-78
2023/01/06 10:38:51;;;;;;;;;5.67;5.67;;;;;15.47;53.62;101232.41;5054164;28;45818;-69
2023/01/06 10:41:50;;;;;;;;;6.00;6.00;;;;;14.96;54.31;101106.75;5055737;28;45535;-69
2023/01/06 10:44:17;;;;;;;;;7.00;7.00;;;;;15.74;53.79;101216.31;5055033;28;45386;-69
2023/01/06 10:46:44;;;;;;;;;7.33;6.67;;;;;15.81;53.19;101209.41;5055957;28;45485;-69
2023/01/06 10:49:18;;;;;;;;;10.75;10.50;;;;;15.76;53.14;101204.06;5055835;28;46227;-70
2023/01/06 10:51:52;;;;;;;;;7.33;7.00;;;;;15.82;54.17;101201.56;5058966;28;45562;-72
2023/01/06 10:54:23;;;;;;;;;6.00;5.00;;;;;15.88;53.82;101191.13;5039542;28;45405;-69
2023/01/06 10:56:57;;;;;;;;;6.67;6.00;;;;;16.07;54.19;101197.59;5056426;28;45475;-69
2023/01/06 10:59:23;;;;;;;;;12.00;11.33;;;;;16.14;52.44;101187.19;5058619;28;46218;-78
2023/01/06 11:01:56;;;;;;;;;13.33;12.33;;;;;16.05;53.18;101185.25;5058183;28;45383;-73
2023/01/06 11:04:25;;;;;;;;;9.67;9.33;;;;;16.03;53.16;101185.22;5057844;28;45518;-70
2023/01/06 11:06:57;;;;;;;;;9.67;7.67;;;;;15.93;52.92;101175.41;5058767;28;45529;-68
2023/01/06 11:09:41;;;;;;;;;9.00;8.00;;;;;15.84;53.16;101170.84;5058178;28;45561;-68
2023/01/06 11:12:18;;;;;;;;;8.00;7.00;;;;;15.85;52.79;101164.72;5058536;28;45513;-72
2023/01/06 11:15:00;;;;;;;;;10.67;9.67;;;;;15.85;53.68;101161.19;5053089;28;45236;-71
2023/01/06 11:17:27;;;;;;;;;10.00;9.67;;;;;15.92;54.30;101152.56;5056768;28;45577;-71
2023/01/06 11:20:30;;;;;;;;;7.00;7.00;;;;;16.00;53.58;101142.16;5054660;28;45928;-66
2023/01/06 11:23:21;;;;;;;;;10.00;8.67;;;;;16.06;53.76;101129.06;4976027;28;45519;-69
2023/01/06 11:26:07;;;;;;;;;8.00;8.00;;;;;16.13;53.86;101122.16;5038641;28;45481;-68
2023/01/06 11:28:33;;;;;;;;;9.67;7.33;;;;;16.21;53.51;101131.94;5056551;28;45541;-70
2023/01/06 11:31:25;;;;;;;;;7.33;7.33;;;;;16.33;54.04;101112.78;5057467;28;45429;-70
2023/01/06 11:33:53;;;;;;;;;8.67;6.33;;;;;16.35;53.31;101113.72;5047618;28;45552;-68
2023/01/06 11:36:22;;;;;;;;;8.33;7.00;;;;;16.41;53.16;101105.00;5056633;28;45467;-68
2023/01/06 11:39:09;;;;;;;;;6.00;5.00;;;;;16.50;52.52;101106.03;5057009;28;45526;-70
2023/01/06 11:41:36;;;;;;;;;4.00;4.00;;;;;16.46;51.00;101095.44;5053890;28;45548;-67
2023/01/06 11:44:12;;;;;;;;;7.00;7.00;;;;;16.36;51.90;101094.41;5054901;28;45421;-67
2023/01/06 11:46:46;;;;;;;;;9.00;9.00;;;;;16.34;52.41;101082.06;5050875;28;45506;-68